Time;durP1;ratioP1;P1;durP2;ratioP2;P2;SDS_P1;SDS_P2;PMS_P1;PMS_P2;Temp;Humidity;BMP_temperature;BMP_pressure;BME280_temperature;BME280_humidity;BME280_pressure;Samples;Min_cycle;Max_cycle;Signal;HPM_P1;HPM_P2
2021/11/03 00:01:29;;;;;;;36.30;23.52;;;5.70;99.90;;;;;;5057779;28;25067;-74
2021/11/03 00:03:55;;;;;;;29.08;22.88;;;5.70;99.90;;;;;;5072509;28;25060;-73
2021/11/03 00:06:22;;;;;;;35.65;23.40;;;5.70;99.90;;;;;;5072485;28;25061;-73
2021/11/03 00:08:49;;;;;;;30.10;21.92;;;5.70;99.90;;;;;;5077705;28;25072;-73
2021/11/03 00:11:16;;;;;;;36.28;23.23;;;5.70;99.90;;;;;;5083590;28;25077;-73
2021/11/03 00:13:42;;;;;;;34.67;22.20;;;5.70;99.90;;;;;;5079532;28;25100;-75
2021/11/03 00:16:09;;;;;;;28.38;21.10;;;5.60;99.90;;;;;;5062334;28;25070;-73
2021/11/03 00:18:34;;;;;;;32.95;20.65;;;5.60;99.90;;;;;;5063598;28;25072;-74
2021/11/03 00:21:01;;;;;;;36.40;22.95;;;5.50;99.90;;;;;;5082732;28;25087;-76
2021/11/03 00:23:28;;;;;;;32.40;21.58;;;5.50;99.90;;;;;;5081094;28;25067;-74
2021/11/03 00:25:54;;;;;;;33.97;22.90;;;5.50;99.90;;;;;;5074374;28;25068;-74
2021/11/03 00:28:22;;;;;;;33.30;22.38;;;5.40;99.90;;;;;;5057191;28;25052;-73
2021/11/03 00:30:52;;;;;;;35.60;22.60;;;5.40;99.90;;;;;;5071079;28;25057;-73
2021/11/03 00:33:19;;;;;;;27.38;19.15;;;5.30;99.90;;;;;;5065952;28;25059;-75
2021/11/03 00:35:45;;;;;;;32.70;21.80;;;5.30;99.90;;;;;;5078270;28;25051;-76
2021/11/03 00:38:11;;;;;;;29.83;20.67;;;5.30;99.90;;;;;;5072970;28;25123;-75
2021/11/03 00:40:38;;;;;;;26.33;19.38;;;5.30;99.90;;;;;;5078326;28;25058;-73
2021/11/03 00:43:04;;;;;;;29.02;21.55;;;5.30;99.90;;;;;;5063373;28;25058;-73
2021/11/03 00:45:29;;;;;;;28.58;19.90;;;5.30;99.90;;;;;;5068005;28;25071;-74
2021/11/03 00:47:55;;;;;;;27.45;19.95;;;5.30;99.90;;;;;;5074118;28;25143;-74
2021/11/03 00:50:22;;;;;;;28.52;19.48;;;5.40;99.90;;;;;;5079640;28;25066;-75
2021/11/03 00:52:48;;;;;;;32.33;20.65;;;5.50;99.90;;;;;;5066400;28;25064;-73
2021/11/03 00:55:15;;;;;;;27.95;20.27;;;5.40;99.90;;;;;;5041881;28;25050;-74
2021/11/03 00:57:41;;;;;;;33.58;19.25;;;5.40;99.90;;;;;;5058309;28;25067;-74
2021/11/03 01:00:08;;;;;;;38.47;23.35;;;5.40;99.90;;;;;;5063748;28;25074;-75
2021/11/03 01:02:35;;;;;;;28.25;20.67;;;5.30;99.90;;;;;;5047971;28;25161;-75
2021/11/03 01:05:01;;;;;;;30.70;21.42;;;5.20;99.90;;;;;;5063848;28;25057;-73
2021/11/03 01:07:27;;;;;;;39.90;25.85;;;5.20;99.90;;;;;;5065213;28;25136;-74
2021/11/03 01:09:52;;;;;;;35.08;23.50;;;5.10;99.90;;;;;;5068633;28;25072;-74
2021/11/03 01:12:18;;;;;;;30.88;22.73;;;5.20;99.90;;;;;;5061700;28;25153;-74
2021/11/03 01:14:45;;;;;;;38.90;24.55;;;5.20;99.90;;;;;;5053914;28;25151;-74
2021/11/03 01:17:11;;;;;;;30.02;22.50;;;5.20;99.90;;;;;;5063147;28;25153;-74
2021/11/03 01:19:37;;;;;;;36.08;23.88;;;5.20;99.90;;;;;;5068661;28;25061;-74
2021/11/03 01:22:03;;;;;;;31.27;21.98;;;5.20;99.90;;;;;;5040953;28;25060;-75
2021/11/03 01:24:29;;;;;;;33.00;23.33;;;5.30;99.90;;;;;;5048948;28;25062;-73
2021/11/03 01:26:55;;;;;;;41.25;24.05;;;5.30;99.90;;;;;;5066579;28;25151;-74
2021/11/03 01:29:21;;;;;;;36.55;23.45;;;5.30;99.90;;;;;;5051349;28;25090;-71
2021/11/03 01:31:46;;;;;;;34.70;23.30;;;5.20;99.90;;;;;;5068746;28;25532;-77
2021/11/03 01:34:12;;;;;;;38.05;24.13;;;5.20;99.90;;;;;;5067919;28;25105;-76
2021/11/03 01:36:38;;;;;;;37.15;25.25;;;5.30;99.90;;;;;;5068106;28;25105;-75
2021/11/03 01:39:05;;;;;;;35.08;24.25;;;5.30;99.90;;;;;;5067768;28;25102;-74
2021/11/03 01:41:31;;;;;;;38.78;24.40;;;5.20;99.90;;;;;;5063788;28;25062;-74
2021/11/03 01:44:09;;;;;;;38.53;26.00;;;5.20;99.90;;;;;;5059201;28;25067;-75
2021/11/03 01:46:38;;;;;;;38.05;23.10;;;5.10;99.90;;;;;;5052829;28;25055;-76
2021/11/03 01:49:14;;;;;;;36.20;24.90;;;5.20;99.90;;;;;;5069411;28;25079;-75
2021/11/03 01:51:50;;;;;;;38.15;24.52;;;5.20;99.90;;;;;;5056337;28;25062;-75
2021/11/03 01:54:40;;;;;;;39.78;25.30;;;5.30;99.90;;;;;;5067080;28;25086;-75
2021/11/03 01:57:09;;;;;;;35.28;24.25;;;5.20;99.90;;;;;;5041704;28;25133;-76
2021/11/03 01:59:42;;;;;;;33.53;23.55;;;5.10;99.90;;;;;;5079791;28;25138;-76
2021/11/03 02:02:09;;;;;;;35.40;25.38;;;5.10;99.90;;;;;;5076684;28;25150;-74
2021/11/03 02:04:35;;;;;;;37.05;23.90;;;5.10;99.90;;;;;;5060914;28;25127;-75
2021/11/03 02:07:08;;;;;;;32.97;23.95;;;5.00;99.90;;;;;;5048867;28;25056;-75
2021/11/03 02:09:33;;;;;;;40.97;26.80;;;5.10;99.90;;;;;;5065972;28;25071;-74
2021/11/03 02:11:59;;;;;;;34.08;24.17;;;5.00;99.90;;;;;;5069992;28;25072;-72
2021/11/03 02:14:25;;;;;;;37.08;24.05;;;4.90;99.90;;;;;;5071558;28;25061;-74
2021/11/03 02:16:52;;;;;;;33.05;23.00;;;4.90;99.90;;;;;;5058276;28;25105;-74
2021/11/03 02:19:38;;;;;;;41.15;24.58;;;5.00;99.90;;;;;;5077864;28;25051;-74
2021/11/03 02:22:27;;;;;;;34.17;24.50;;;4.90;99.90;;;;;;5050006;28;25087;-74
2021/11/03 02:25:31;;;;;;;46.65;29.73;;;4.80;99.90;;;;;;5071696;28;25110;-73
2021/11/03 02:27:58;;;;;;;40.67;28.33;;;4.60;99.90;;;;;;5001185;28;25102;-74
2021/11/03 02:30:25;;;;;;;38.55;25.83;;;4.70;99.90;;;;;;5060339;28;25144;-74
2021/11/03 02:33:02;;;;;;;39.35;26.60;;;4.80;99.90;;;;;;5078525;28;25099;-74
2021/11/03 02:35:28;;;;;;;39.42;25.95;;;4.90;99.90;;;;;;5078809;28;25060;-74
2021/11/03 02:37:57;;;;;;;50.40;31.42;;;4.90;99.90;;;;;;5078213;28;25057;-74
2021/11/03 02:40:29;;;;;;;53.40;32.83;;;5.00;99.90;;;;;;5083934;28;25054;-74
2021/11/03 02:43:29;;;;;;;110.90;44.83;;;5.00;99.90;;;;;;5082763;28;25057;-75
2021/11/03 02:45:59;;;;;;;142.45;41.58;;;5.10;99.90;;;;;;5074794;28;25160;-75
2021/11/03 02:48:29;;;;;;;68.40;36.75;;;5.10;99.90;;;;;;5081459;28;25076;-75
2021/11/03 02:51:15;;;;;;;148.10;42.90;;;5.10;99.90;;;;;;5080675;28;25091;-73
2021/11/03 02:53:45;;;;;;;551.28;68.85;;;5.20;99.90;;;;;;5069630;28;25064;-75
2021/11/03 02:56:12;;;;;;;319.67;49.42;;;5.10;99.90;;;;;;5071764;28;25068;-74
2021/11/03 02:58:38;;;;;;;516.47;63.90;;;5.10;99.90;;;;;;5055309;28;25063;-74
2021/11/03 03:01:30;;;;;;;326.42;56.55;;;5.20;99.90;;;;;;5067141;28;25059;-74
2021/11/03 03:03:56;;;;;;;197.65;43.25;;;5.20;99.90;;;;;;5077297;28;25062;-73
2021/11/03 03:06:29;;;;;;;540.25;58.83;;;5.30;99.90;;;;;;5078070;28;25058;-74
2021/11/03 03:08:56;;;;;;;285.23;48.95;;;5.40;99.90;;;;;;5088171;28;25051;-74
2021/11/03 03:11:24;;;;;;;309.98;51.50;;;5.40;99.90;;;;;;5076293;28;25061;-74
2021/11/03 03:13:51;;;;;;;553.30;66.95;;;5.40;99.90;;;;;;5074643;28;24985;-73
2021/11/03 03:16:19;;;;;;;595.58;72.55;;;5.30;99.90;;;;;;5067970;28;25086;-74
2021/11/03 03:18:45;;;;;;;556.85;63.88;;;5.20;99.90;;;;;;5064506;28;25158;-74
2021/11/03 03:21:12;;;;;;;556.78;70.55;;;5.20;99.90;;;;;;5062565;28;25076;-74
2021/11/03 03:23:40;;;;;;;338.50;54.45;;;5.20;99.90;;;;;;5068755;28;25065;-74
2021/11/03 03:26:07;;;;;;;501.00;63.55;;;5.30;99.90;;;;;;5065352;28;25065;-73
2021/11/03 03:28:33;;;;;;;290.83;50.72;;;5.40;99.90;;;;;;5063186;28;25062;-74
2021/11/03 03:30:59;;;;;;;379.33;53.38;;;5.40;99.90;;;;;;5068297;28;25096;-74
2021/11/03 03:33:25;;;;;;;420.70;59.67;;;5.50;99.90;;;;;;5061466;28;25148;-73
2021/11/03 03:35:51;;;;;;;382.35;57.58;;;5.50;99.90;;;;;;5051921;28;25061;-74
2021/11/03 03:38:17;;;;;;;347.90;56.85;;;5.40;99.90;;;;;;5066146;28;25116;-73
2021/11/03 03:40:43;;;;;;;438.73;70.22;;;5.30;99.90;;;;;;5065638;28;25062;-75
2021/11/03 03:43:08;;;;;;;357.65;63.20;;;5.20;99.90;;;;;;5065455;28;25127;-74
2021/11/03 03:45:34;;;;;;;336.05;53.85;;;5.20;99.90;;;;;;5056837;28;25051;-75
2021/11/03 03:48:00;;;;;;;362.33;59.13;;;5.10;99.90;;;;;;5054672;28;25053;-74
2021/11/03 03:50:26;;;;;;;485.63;61.47;;;5.10;99.90;;;;;;5034884;28;25161;-75
2021/11/03 03:52:52;;;;;;;351.33;52.58;;;5.10;99.90;;;;;;5048394;28;25120;-75
2021/11/03 03:55:19;;;;;;;278.88;47.65;;;5.10;99.90;;;;;;5064505;28;25055;-75
2021/11/03 03:57:45;;;;;;;409.08;54.28;;;5.20;99.90;;;;;;5049710;28;25057;-73
2021/11/03 04:00:14;;;;;;;479.08;55.58;;;5.20;99.90;;;;;;5022555;28;25064;-75
2021/11/03 04:02:40;;;;;;;486.27;56.42;;;5.30;99.90;;;;;;5064319;28;25096;-76
2021/11/03 04:05:07;;;;;;;434.45;59.97;;;5.40;99.90;;;;;;5067116;28;25108;-75
2021/11/03 04:07:33;;;;;;;335.08;49.90;;;5.40;99.90;;;;;;5070492;28;25106;-73
2021/11/03 04:09:58;;;;;;;387.27;57.22;;;5.40;99.90;;;;;;5069302;28;25100;-74
2021/11/03 04:12:24;;;;;;;297.90;47.20;;;5.60;99.90;;;;;;5067879;28;25147;-74
2021/11/03 04:14:50;;;;;;;120.28;32.28;;;5.60;99.90;;;;;;5064355;28;25060;-74
2021/11/03 04:17:15;;;;;;;204.07;50.25;;;5.70;99.90;;;;;;5056809;28;25068;-75
2021/11/03 04:19:41;;;;;;;205.13;34.97;;;5.70;99.90;;;;;;5073158;28;25177;-76
2021/11/03 04:22:07;;;;;;;675.88;78.63;;;5.80;99.90;;;;;;5070021;28;25086;-74
2021/11/03 04:24:34;;;;;;;386.25;60.15;;;5.80;99.90;;;;;;5060714;28;25080;-74
2021/11/03 04:27:00;;;;;;;225.05;45.95;;;5.60;99.90;;;;;;5069939;28;25059;-74
2021/11/03 04:29:25;;;;;;;332.55;50.53;;;5.70;99.90;;;;;;5071683;28;25074;-74
2021/11/03 04:31:52;;;;;;;382.80;57.38;;;5.70;99.90;;;;;;5069399;28;25069;-72
2021/11/03 04:34:19;;;;;;;220.15;51.00;;;5.70;99.90;;;;;;5073453;28;25077;-74
2021/11/03 04:36:45;;;;;;;448.10;71.00;;;5.70;99.90;;;;;;5061231;28;25077;-73
2021/11/03 04:39:11;;;;;;;267.42;55.08;;;5.70;99.90;;;;;;5093284;28;25068;-75
2021/11/03 04:41:45;;;;;;;265.45;45.63;;;5.70;99.90;;;;;;5096717;28;25056;-74
2021/11/03 04:44:10;;;;;;;441.50;56.35;;;5.80;99.90;;;;;;5095237;28;25073;-74
2021/11/03 04:46:36;;;;;;;315.63;52.83;;;5.80;99.90;;;;;;5072101;28;25059;-74
2021/11/03 04:49:03;;;;;;;292.17;51.85;;;5.70;99.90;;;;;;5052554;28;25098;-73
2021/11/03 04:51:28;;;;;;;214.10;47.08;;;5.80;99.90;;;;;;5070044;28;25144;-73
2021/11/03 04:53:54;;;;;;;308.77;62.72;;;5.70;99.90;;;;;;5073159;28;25132;-72
2021/11/03 04:56:21;;;;;;;347.23;58.50;;;5.70;99.90;;;;;;5066203;28;25057;-74
2021/11/03 04:58:51;;;;;;;174.73;39.83;;;5.70;99.90;;;;;;5067679;28;25058;-73
2021/11/03 05:01:20;;;;;;;242.20;58.97;;;5.70;99.90;;;;;;5069812;28;25060;-75
2021/11/03 05:03:46;;;;;;;203.57;49.92;;;5.70;99.90;;;;;;5071580;28;25080;-74
2021/11/03 05:06:13;;;;;;;304.52;54.13;;;5.60;99.90;;;;;;5074886;28;25055;-76
2021/11/03 05:08:39;;;;;;;223.85;44.28;;;5.60;99.90;;;;;;5072397;28;25124;-75
2021/11/03 05:11:04;;;;;;;216.52;49.17;;;5.60;99.90;;;;;;5069208;28;25093;-74
2021/11/03 05:13:30;;;;;;;239.90;58.13;;;5.60;99.90;;;;;;5072209;28;25055;-73
2021/11/03 05:15:56;;;;;;;163.18;42.20;;;5.60;99.90;;;;;;5066999;28;25104;-74
2021/11/03 05:18:21;;;;;;;142.68;45.15;;;5.60;99.90;;;;;;5068849;28;25068;-75
2021/11/03 05:20:47;;;;;;;113.88;46.22;;;5.60;99.90;;;;;;5068985;28;25048;-75
2021/11/03 05:23:13;;;;;;;182.07;48.92;;;5.70;99.90;;;;;;5069305;28;25072;-74
2021/11/03 05:25:39;;;;;;;129.73;49.05;;;5.60;99.90;;;;;;5068209;28;25067;-74
2021/11/03 05:28:04;;;;;;;171.23;45.58;;;5.50;99.90;;;;;;5066657;28;25069;-72
2021/11/03 05:30:30;;;;;;;201.52;54.78;;;5.40;99.90;;;;;;5070115;28;25057;-74
2021/11/03 05:32:57;;;;;;;165.27;56.67;;;5.40;99.90;;;;;;5070346;28;25138;-74
2021/11/03 05:35:23;;;;;;;155.68;51.28;;;5.40;99.90;;;;;;5064790;28;25089;-74
2021/11/03 05:37:49;;;;;;;114.55;46.65;;;5.30;99.90;;;;;;5068279;28;25128;-72
2021/11/03 05:40:19;;;;;;;102.45;38.70;;;5.30;99.90;;;;;;5060513;28;25055;-74
2021/11/03 05:42:44;;;;;;;86.22;42.08;;;5.40;99.90;;;;;;5067210;28;25097;-75
2021/11/03 05:45:10;;;;;;;58.33;38.13;;;5.50;99.90;;;;;;5065605;28;25094;-74
2021/11/03 05:47:37;;;;;;;56.45;35.13;;;5.40;99.90;;;;;;5070548;28;25084;-75
2021/11/03 05:50:04;;;;;;;65.47;40.55;;;5.50;99.90;;;;;;5052338;28;25138;-74
2021/11/03 05:52:29;;;;;;;68.10;41.60;;;5.60;99.90;;;;;;5072390;28;25061;-73
2021/11/03 05:54:55;;;;;;;50.60;35.75;;;5.50;99.90;;;;;;5069043;28;25092;-73
2021/11/03 05:57:31;;;;;;;59.38;37.72;;;5.40;99.90;;;;;;5050511;28;25095;-75
2021/11/03 05:59:58;;;;;;;54.00;35.95;;;5.40;99.90;;;;;;5068118;28;25053;-75
2021/11/03 06:02:24;;;;;;;53.70;35.50;;;5.40;99.90;;;;;;5068442;28;25154;-73
2021/11/03 06:04:52;;;;;;;50.67;33.55;;;5.50;99.90;;;;;;5064247;28;25057;-73
2021/11/03 06:07:21;;;;;;;40.25;29.15;;;5.50;99.90;;;;;;5047831;28;25097;-74
2021/11/03 06:09:47;;;;;;;51.58;34.97;;;5.50;99.90;;;;;;5053870;28;25160;-72
2021/11/03 06:12:13;;;;;;;47.88;34.08;;;5.70;99.90;;;;;;5079695;28;25115;-75
2021/11/03 06:14:39;;;;;;;50.05;35.50;;;5.40;99.90;;;;;;5077241;28;25280;-74
2021/11/03 06:17:06;;;;;;;51.28;35.50;;;5.20;99.90;;;;;;5062606;28;25082;-75
2021/11/03 06:19:31;;;;;;;49.75;33.92;;;5.10;99.90;;;;;;5063635;28;25117;-75
2021/11/03 06:21:58;;;;;;;50.28;35.38;;;5.10;99.90;;;;;;5074616;28;25107;-74
2021/11/03 06:24:25;;;;;;;55.22;37.40;;;5.20;99.90;;;;;;5074056;28;25150;-74
2021/11/03 06:26:51;;;;;;;50.88;34.47;;;5.10;99.90;;;;;;5053586;28;25059;-75
2021/11/03 06:29:17;;;;;;;65.78;40.90;;;5.00;99.90;;;;;;5070216;28;25078;-75
2021/11/03 06:31:42;;;;;;;52.00;35.58;;;4.90;99.90;;;;;;5052726;28;25060;-75
2021/11/03 06:34:08;;;;;;;47.40;33.17;;;4.90;99.90;;;;;;5064956;28;25066;-73
2021/11/03 06:36:36;;;;;;;58.00;39.33;;;4.90;99.90;;;;;;5066899;28;25086;-75
2021/11/03 06:39:04;;;;;;;56.55;39.47;;;5.00;99.90;;;;;;5040251;28;25106;-74
2021/11/03 06:41:30;;;;;;;62.75;39.92;;;4.90;99.90;;;;;;5073768;28;25066;-74
2021/11/03 06:43:57;;;;;;;58.38;39.13;;;4.80;99.90;;;;;;5064353;28;25148;-73
2021/11/03 06:46:23;;;;;;;67.85;44.25;;;4.90;99.90;;;;;;5049061;28;25069;-72
2021/11/03 06:48:48;;;;;;;61.15;39.42;;;4.80;99.90;;;;;;5070305;28;25114;-75
2021/11/03 06:51:14;;;;;;;54.22;35.20;;;4.80;99.90;;;;;;5069149;28;25067;-75
2021/11/03 06:53:40;;;;;;;51.55;32.63;;;4.90;99.90;;;;;;5070953;28;25075;-74
2021/11/03 06:56:06;;;;;;;47.85;33.38;;;4.90;99.90;;;;;;5085568;28;25102;-74
2021/11/03 06:58:33;;;;;;;52.70;35.95;;;4.90;99.90;;;;;;5078778;28;25067;-75
2021/11/03 07:00:59;;;;;;;54.05;36.00;;;4.90;99.90;;;;;;5069132;28;25079;-75
2021/11/03 07:03:28;;;;;;;55.30;35.78;;;4.90;99.90;;;;;;5063724;28;25156;-71
2021/11/03 07:05:55;;;;;;;46.88;33.72;;;5.00;99.90;;;;;;5064957;28;25063;-73
2021/11/03 07:08:24;;;;;;;50.70;33.35;;;5.00;99.90;;;;;;5070345;28;25070;-74
2021/11/03 07:10:53;;;;;;;49.35;34.97;;;5.00;99.90;;;;;;5066353;28;25174;-74
2021/11/03 07:13:20;;;;;;;49.40;36.15;;;5.00;99.90;;;;;;5065373;28;25067;-75
2021/11/03 07:15:46;;;;;;;68.70;42.65;;;4.90;99.90;;;;;;5048832;28;25068;-72
2021/11/03 07:18:18;;;;;;;72.13;45.65;;;4.60;99.90;;;;;;5068648;28;25103;-75
2021/11/03 07:20:45;;;;;;;60.17;38.13;;;4.60;99.90;;;;;;5061593;28;25060;-74
2021/11/03 07:23:13;;;;;;;57.88;38.10;;;4.70;99.90;;;;;;5059126;28;25120;-75
2021/11/03 07:25:39;;;;;;;59.45;38.42;;;4.80;99.90;;;;;;5059721;28;25070;-74
2021/11/03 07:28:06;;;;;;;63.78;41.70;;;4.80;99.90;;;;;;5036462;28;25088;-75
2021/11/03 07:30:35;;;;;;;71.80;44.92;;;4.90;99.90;;;;;;5064326;28;25060;-74
2021/11/03 07:33:00;;;;;;;70.25;44.78;;;4.90;99.90;;;;;;5050471;28;25062;-74
2021/11/03 07:35:27;;;;;;;81.35;46.15;;;4.80;99.90;;;;;;5046141;28;25062;-75
2021/11/03 07:37:53;;;;;;;144.77;51.85;;;4.80;99.90;;;;;;5065592;28;25084;-72
2021/11/03 07:40:23;;;;;;;191.48;54.33;;;4.90;99.90;;;;;;5063994;28;25061;-73
2021/11/03 07:42:49;;;;;;;124.68;46.30;;;5.00;99.90;;;;;;5077706;28;25086;-75
2021/11/03 07:45:15;;;;;;;219.38;53.25;;;5.10;99.90;;;;;;5071375;28;25087;-74
2021/11/03 07:47:41;;;;;;;144.88;49.88;;;5.00;99.90;;;;;;5068635;28;25100;-74
2021/11/03 07:50:13;;;;;;;338.60;60.20;;;5.00;99.90;;;;;;5065309;28;25150;-75
2021/11/03 07:52:39;;;;;;;350.00;57.95;;;4.90;99.90;;;;;;5073658;28;25070;-74
2021/11/03 07:55:05;;;;;;;497.00;75.13;;;5.00;99.90;;;;;;5054089;28;25059;-74
2021/11/03 07:57:31;;;;;;;383.92;55.65;;;5.10;99.90;;;;;;5067903;28;25076;-74
2021/11/03 07:59:57;;;;;;;408.35;58.70;;;5.20;99.90;;;;;;5069416;28;25056;-75
2021/11/03 08:02:22;;;;;;;216.70;56.17;;;5.20;99.90;;;;;;5071327;28;25071;-73
2021/11/03 08:04:48;;;;;;;215.00;52.35;;;5.20;99.90;;;;;;5062136;28;25095;-76
2021/11/03 08:07:13;;;;;;;199.88;44.63;;;5.30;99.90;;;;;;5069069;28;25103;-74
2021/11/03 08:09:45;;;;;;;208.48;50.20;;;5.40;99.90;;;;;;5055153;28;25116;-73
2021/11/03 08:12:11;;;;;;;260.23;52.85;;;5.40;99.90;;;;;;5069255;28;25063;-73
2021/11/03 08:14:37;;;;;;;157.68;46.10;;;5.40;99.90;;;;;;5051816;28;25085;-74
2021/11/03 08:17:11;;;;;;;158.52;43.63;;;5.50;99.90;;;;;;5066968;28;25125;-74
2021/11/03 08:19:45;;;;;;;196.35;50.83;;;5.60;99.90;;;;;;5065928;28;25054;-74
2021/11/03 08:22:12;;;;;;;227.57;54.78;;;5.70;99.90;;;;;;5041948;28;25051;-72
2021/11/03 08:24:38;;;;;;;458.20;62.78;;;5.60;99.90;;;;;;5054904;28;25072;-73
2021/11/03 08:27:05;;;;;;;175.63;50.47;;;5.50;99.90;;;;;;5034927;28;25048;-75
2021/11/03 08:29:31;;;;;;;307.40;56.42;;;5.40;99.90;;;;;;5054864;28;25159;-75
2021/11/03 08:31:59;;;;;;;352.98;61.72;;;5.60;99.90;;;;;;5064777;28;25103;-73
2021/11/03 08:34:30;;;;;;;378.35;68.47;;;5.80;99.90;;;;;;5068826;28;25158;-74
2021/11/03 08:36:59;;;;;;;254.68;56.65;;;5.80;99.90;;;;;;5050904;28;25067;-72
2021/11/03 08:39:25;;;;;;;379.40;63.15;;;5.90;99.90;;;;;;5067938;28;25136;-73
2021/11/03 08:41:51;;;;;;;276.73;53.25;;;5.90;99.90;;;;;;5064390;28;25117;-75
2021/11/03 08:44:16;;;;;;;459.05;73.72;;;6.00;99.90;;;;;;5069967;28;25133;-73
2021/11/03 08:46:42;;;;;;;336.52;68.45;;;5.90;99.90;;;;;;5066006;28;25148;-76
2021/11/03 08:49:08;;;;;;;381.90;72.07;;;5.90;99.90;;;;;;5071052;28;25062;-74
2021/11/03 08:51:34;;;;;;;254.00;68.82;;;5.80;99.90;;;;;;5057143;28;25098;-76
2021/11/03 08:54:04;;;;;;;316.58;75.00;;;5.90;99.90;;;;;;5046014;28;25125;-73
2021/11/03 08:56:29;;;;;;;126.15;51.35;;;6.00;99.90;;;;;;5059397;28;25111;-73
2021/11/03 08:58:55;;;;;;;251.55;70.78;;;6.20;99.90;;;;;;5055592;28;25091;-73
2021/11/03 09:01:22;;;;;;;208.20;66.40;;;6.30;99.90;;;;;;5059915;28;25127;-75
2021/11/03 09:03:50;;;;;;;219.73;66.00;;;6.30;99.90;;;;;;5074328;28;25075;-73
2021/11/03 09:06:16;;;;;;;166.40;58.28;;;6.50;99.90;;;;;;5041475;28;25065;-74
2021/11/03 09:08:46;;;;;;;118.00;43.85;;;6.60;99.90;;;;;;5047517;28;25058;-76
2021/11/03 09:11:12;;;;;;;311.98;70.40;;;6.80;99.90;;;;;;5070347;28;25063;-76
2021/11/03 09:13:38;;;;;;;214.88;54.10;;;6.80;99.90;;;;;;5062834;28;25139;-76
2021/11/03 09:16:05;;;;;;;173.35;58.45;;;6.80;99.90;;;;;;5065548;28;25100;-76
2021/11/03 09:18:31;;;;;;;131.98;51.17;;;6.90;99.90;;;;;;5067895;28;25066;-77
2021/11/03 09:20:58;;;;;;;154.35;51.05;;;6.90;99.90;;;;;;5070618;28;25061;-76
2021/11/03 09:23:25;;;;;;;107.30;45.05;;;7.10;99.90;;;;;;5068298;28;25067;-75
2021/11/03 09:25:52;;;;;;;182.38;56.90;;;7.20;99.90;;;;;;5066319;28;25157;-75
2021/11/03 09:28:20;;;;;;;153.70;60.30;;;7.10;99.90;;;;;;5065895;28;25070;-74
2021/11/03 09:30:46;;;;;;;184.38;59.42;;;7.10;99.90;;;;;;5068894;28;25159;-76
2021/11/03 09:33:12;;;;;;;164.52;68.15;;;7.00;99.90;;;;;;5071255;28;25096;-77
2021/11/03 09:35:45;;;;;;;175.50;68.78;;;7.00;99.90;;;;;;5069282;28;25134;-76
2021/11/03 09:38:16;;;;;;;100.20;57.55;;;7.00;99.90;;;;;;5067009;28;25123;-76
2021/11/03 09:40:48;;;;;;;81.47;49.50;;;7.00;99.90;;;;;;5069237;28;25081;-76
2021/11/03 09:43:26;;;;;;;66.43;43.55;;;7.10;99.90;;;;;;5068299;28;25138;-75
2021/11/03 09:45:53;;;;;;;82.70;51.42;;;7.40;99.90;;;;;;5070969;28;25067;-77
2021/11/03 09:48:31;;;;;;;105.93;61.35;;;7.70;99.90;;;;;;5072430;28;25053;-75
2021/11/03 09:51:00;;;;;;;90.28;56.17;;;7.60;99.90;;;;;;5075999;28;25073;-77
2021/11/03 09:53:47;;;;;;;91.63;55.28;;;7.60;99.90;;;;;;5090263;28;25070;-78
2021/11/03 09:56:43;;;;;;;85.35;55.08;;;7.70;99.90;;;;;;5092873;28;25067;-77
2021/11/03 09:59:34;;;;;;;81.47;54.97;;;7.60;99.90;;;;;;5084891;28;25076;-78
2021/11/03 10:02:18;;;;;;;81.00;54.17;;;7.50;99.90;;;;;;5076591;28;25077;-78
2021/11/03 10:04:57;;;;;;;73.00;49.05;;;7.50;99.90;;;;;;5064397;28;25153;-75
2021/11/03 10:07:32;;;;;;;64.35;44.63;;;7.70;99.90;;;;;;5048223;28;25055;-76
2021/11/03 10:10:31;;;;;;;96.15;58.20;;;7.60;99.90;;;;;;5071049;28;25087;-76
2021/11/03 10:13:01;;;;;;;80.72;51.63;;;7.70;99.90;;;;;;5059790;28;25129;-77
2021/11/03 10:15:28;;;;;;;74.90;49.28;;;7.70;99.90;;;;;;5065608;28;25086;-76
2021/11/03 10:18:19;;;;;;;67.43;46.95;;;7.70;99.90;;;;;;5070162;28;25152;-75
2021/11/03 10:21:19;;;;;;;67.32;44.85;;;7.90;99.90;;;;;;5054049;28;25184;-76
2021/11/03 10:23:56;;;;;;;71.57;44.95;;;8.00;99.90;;;;;;5072236;28;25104;-76
2021/11/03 10:26:22;;;;;;;68.57;45.03;;;8.10;99.90;;;;;;5053030;28;25053;-75
2021/11/03 10:29:04;;;;;;;68.38;47.25;;;8.20;99.90;;;;;;5064138;28;25158;-76
2021/11/03 10:31:39;;;;;;;65.32;42.03;;;8.20;99.90;;;;;;5065466;28;25071;-78
2021/11/03 10:34:22;;;;;;;55.15;36.85;;;8.20;99.90;;;;;;5061177;28;25085;-74
2021/11/03 10:36:59;;;;;;;51.60;37.25;;;8.30;99.90;;;;;;5046872;28;25111;-72
2021/11/03 10:39:25;;;;;;;49.55;36.95;;;8.50;99.90;;;;;;5074155;28;25051;-77
2021/11/03 10:42:00;;;;;;;50.50;36.60;;;8.60;99.90;;;;;;5069862;28;25084;-77
2021/11/03 10:44:34;;;;;;;54.78;40.65;;;8.60;99.90;;;;;;5052826;28;25153;-76
2021/11/03 10:47:12;;;;;;;49.90;39.13;;;8.60;99.90;;;;;;5070735;28;25082;-75
2021/11/03 10:50:02;;;;;;;57.72;40.75;;;8.50;99.90;;;;;;5064955;28;25067;-75
2021/11/03 10:52:38;;;;;;;59.28;40.15;;;8.30;99.90;;;;;;5068092;28;25075;-74
2021/11/03 10:55:29;;;;;;;48.30;37.20;;;8.30;99.90;;;;;;5066311;28;25079;-75
2021/11/03 10:58:07;;;;;;;52.45;38.25;;;8.60;99.90;;;;;;5060990;28;25060;-76
2021/11/03 11:00:36;;;;;;;49.45;37.85;;;8.80;99.90;;;;;;5057425;28;25082;-77
2021/11/03 11:03:21;;;;;;;49.78;38.58;;;9.10;99.90;;;;;;5052407;28;25077;-76
2021/11/03 11:05:51;;;;;;;42.35;32.17;;;9.00;99.90;;;;;;5067467;28;25074;-76
2021/11/03 11:08:27;;;;;;;51.55;38.08;;;9.10;99.90;;;;;;5052688;28;25063;-77
2021/11/03 11:11:05;;;;;;;45.72;34.05;;;9.10;99.90;;;;;;5068416;28;25049;-77
2021/11/03 11:13:41;;;;;;;45.75;33.75;;;9.40;99.90;;;;;;5067258;28;25075;-75
2021/11/03 11:16:12;;;;;;;37.78;29.75;;;9.70;99.90;;;;;;5067973;28;25113;-77
2021/11/03 11:18:40;;;;;;;39.17;29.80;;;9.90;99.90;;;;;;5071884;28;25076;-77
2021/11/03 11:21:38;;;;;;;40.65;31.50;;;10.20;99.90;;;;;;5072109;28;25075;-76
2021/11/03 11:24:16;;;;;;;35.38;31.10;;;10.50;99.90;;;;;;5033430;28;25091;-78
2021/11/03 11:27:08;;;;;;;33.58;27.67;;;10.80;99.90;;;;;;5069586;28;25132;-76
2021/11/03 11:29:59;;;;;;;30.60;26.05;;;11.00;99.90;;;;;;5067449;28;25050;-75
2021/11/03 11:32:51;;;;;;;32.50;26.75;;;11.00;99.90;;;;;;5068363;28;25058;-75
2021/11/03 11:35:29;;;;;;;36.80;27.23;;;11.30;99.90;;;;;;5069003;28;25056;-76
2021/11/03 11:38:13;;;;;;;31.50;27.02;;;11.40;99.90;;;;;;5053103;28;25059;-75
2021/11/03 11:41:16;;;;;;;37.50;30.10;;;11.70;99.90;;;;;;5076010;28;25057;-77
2021/11/03 11:44:04;;;;;;;35.53;28.10;;;11.50;99.90;;;;;;5074102;28;25073;-75
2021/11/03 11:46:31;;;;;;;35.08;27.42;;;11.70;99.90;;;;;;5067746;28;25160;-76
2021/11/03 11:49:27;;;;;;;33.15;26.67;;;11.80;99.90;;;;;;5067872;28;25126;-76
2021/11/03 11:52:22;;;;;;;33.42;27.55;;;11.80;99.90;;;;;;5080701;28;25114;-77
2021/11/03 11:55:06;;;;;;;32.75;27.33;;;11.50;99.90;;;;;;5069282;28;25085;-77
2021/11/03 11:57:33;;;;;;;33.20;25.38;;;11.20;99.90;;;;;;5059623;28;25096;-76
2021/11/03 12:00:16;;;;;;;34.92;24.67;;;11.10;99.90;;;;;;5072087;28;25126;-75
2021/11/03 12:02:52;;;;;;;33.20;25.15;;;11.30;99.90;;;;;;5070144;28;25058;-77
2021/11/03 12:05:20;;;;;;;31.60;24.85;;;11.30;99.90;;;;;;5043181;28;25109;-77
2021/11/03 12:08:14;;;;;;;30.40;23.48;;;11.20;99.90;;;;;;5066113;28;25073;-77
2021/11/03 12:11:00;;;;;;;30.95;25.85;;;11.30;99.90;;;;;;5061470;28;25143;-76
2021/11/03 12:13:32;;;;;;;32.10;27.70;;;11.20;99.90;;;;;;5073653;28;25140;-75
2021/11/03 12:16:15;;;;;;;34.72;28.67;;;11.10;99.90;;;;;;5070031;28;25094;-77
2021/11/03 12:18:46;;;;;;;32.78;28.58;;;10.90;99.90;;;;;;5076926;28;25065;-77
2021/11/03 12:21:17;;;;;;;38.35;27.38;;;10.90;99.90;;;;;;5078070;28;25101;-76
2021/11/03 12:24:26;;;;;;;34.75;28.33;;;10.70;99.90;;;;;;5061531;28;25052;-76
2021/11/03 12:27:12;;;;;;;33.00;27.83;;;10.90;99.90;;;;;;5061868;28;25110;-77
2021/11/03 12:29:40;;;;;;;34.03;28.33;;;11.10;99.90;;;;;;5074710;28;25070;-77
2021/11/03 12:32:23;;;;;;;34.53;27.98;;;11.30;99.90;;;;;;5052964;28;25057;-75
2021/11/03 12:34:48;;;;;;;33.78;29.40;;;11.30;99.90;;;;;;5065177;28;25092;-76
2021/11/03 12:37:19;;;;;;;37.60;30.92;;;10.90;99.90;;;;;;5074909;28;25087;-77
2021/11/03 12:39:46;;;;;;;42.65;33.50;;;10.80;99.90;;;;;;5074895;28;25080;-75
2021/11/03 12:42:17;;;;;;;39.40;31.15;;;11.00;99.90;;;;;;5061368;28;25115;-76
2021/11/03 12:44:56;;;;;;;37.17;29.67;;;11.20;99.90;;;;;;5074071;28;25093;-74
2021/11/03 12:47:28;;;;;;;39.33;28.52;;;11.20;99.90;;;;;;5063307;28;25053;-76